createdAt,value
2022-11-24T00:02:35.367Z,97181.28
2022-11-24T00:05:21.718Z,97175.25
2022-11-24T00:08:07.325Z,97078.03
2022-11-24T00:10:52.578Z,97169.06
2022-11-24T00:13:40.838Z,97013.84
2022-11-24T00:16:29.188Z,97134.19
2022-11-24T00:19:19.433Z,97149.88
2022-11-24T00:22:05.177Z,97019.31
2022-11-24T00:24:50.715Z,97169.59
2022-11-24T00:27:36.416Z,96990.53
2022-11-24T00:30:22.098Z,97183.13
2022-11-24T00:33:07.447Z,97153.56
2022-11-24T00:36:01.178Z,97029.91
2022-11-24T00:38:47.463Z,97143.72
2022-11-24T00:41:33.615Z,96996.34
2022-11-24T00:44:18.979Z,97116.16
2022-11-24T00:47:04.527Z,96992.34
2022-11-24T00:49:50.351Z,97177.28
2022-11-24T00:52:35.644Z,97009.09
2022-11-24T00:55:21.585Z,97112.84
2022-11-24T00:58:07.245Z,97178.38
2022-11-24T01:00:53.254Z,97037.19
2022-11-24T01:03:40.224Z,97158.84
2022-11-24T01:06:27.335Z,97188.78
2022-11-24T01:09:12.799Z,97185.69
2022-11-24T01:12:04.389Z,97194.41
2022-11-24T01:14:50.257Z,97200.25
2022-11-24T01:17:35.561Z,97016.94
2022-11-24T01:20:21.060Z,97009.81
2022-11-24T01:23:07.216Z,97193.91
2022-11-24T01:25:53.127Z,97193.69
2022-11-24T01:28:44.868Z,97136.94
2022-11-24T01:31:33.011Z,97202.81
2022-11-24T01:34:18.835Z,97029.72
2022-11-24T01:37:04.945Z,97219.22
2022-11-24T01:39:50.684Z,97020.03
2022-11-24T01:42:53.237Z,97069.63
2022-11-24T01:45:42.225Z,97006.38
2022-11-24T01:48:32.927Z,97070.00
2022-11-24T01:51:24.785Z,97187.50
2022-11-24T01:54:22.415Z,97017.84
2022-11-24T01:57:33.127Z,97124.72
2022-11-24T02:00:18.901Z,97125.81
2022-11-24T02:03:04.431Z,97152.28
2022-11-24T02:05:54.635Z,97136.03
2022-11-24T02:08:59.349Z,97184.59
2022-11-24T02:11:47.081Z,97186.38
2022-11-24T02:14:36.379Z,97176.72
2022-11-24T02:17:22.517Z,97176.72
2022-11-24T02:20:10.736Z,97093.34
2022-11-24T02:23:40.621Z,97184.22
2022-11-24T02:26:46.241Z,97181.66
2022-11-24T02:29:31.806Z,97004.88
2022-11-24T02:32:18.788Z,97179.44
2022-11-24T02:35:06.461Z,97148.78
2022-11-24T02:37:51.978Z,97171.06
2022-11-24T02:40:37.506Z,96996.63
2022-11-24T02:43:24.147Z,97184.53
2022-11-24T02:46:10.951Z,97005.75
2022-11-24T02:48:56.927Z,97023.09
2022-11-24T02:51:42.654Z,97036.78
2022-11-24T02:54:28.865Z,97171.06
2022-11-24T02:57:15.284Z,97136.44
2022-11-24T03:00:00.938Z,97177.66
2022-11-24T03:02:46.367Z,97182.03
2022-11-24T03:05:31.902Z,97185.66
2022-11-24T03:08:17.659Z,97190.78
2022-11-24T03:11:03.748Z,97190.78
2022-11-24T03:13:50.201Z,97055.81
2022-11-24T03:16:35.961Z,97018.22
2022-11-24T03:19:21.404Z,97201.38
2022-11-24T03:22:06.771Z,97212.31
2022-11-24T03:24:52.327Z,97226.34
2022-11-24T03:27:37.831Z,97189.69
2022-11-24T03:30:23.192Z,97081.81
2022-11-24T03:33:08.645Z,97026.25
2022-11-24T03:35:54.156Z,97101.75
2022-11-24T03:38:39.746Z,97213.59
2022-11-24T03:41:25.090Z,97177.81
2022-11-24T03:44:10.483Z,97201.34
2022-11-24T03:46:55.925Z,97207.56
2022-11-24T03:49:41.634Z,97022.78
2022-11-24T03:52:27.395Z,97190.06
2022-11-24T03:55:13.052Z,97157.19
2022-11-24T03:57:58.526Z,97203.53
2022-11-24T04:00:44.055Z,97194.00
2022-11-24T04:03:29.613Z,97217.03
2022-11-24T04:06:15.457Z,97229.63
2022-11-24T04:09:01.050Z,97067.78
2022-11-24T04:12:05.240Z,97223.59
2022-11-24T04:14:50.812Z,97222.31
2022-11-24T04:17:36.459Z,97204.44
2022-11-24T04:20:22.771Z,97153.50
2022-11-24T04:23:10.114Z,97199.13
2022-11-24T04:25:55.687Z,97097.97
2022-11-24T04:28:41.229Z,97231.63
2022-11-24T04:31:26.902Z,97275.00
2022-11-24T04:34:13.148Z,97245.47
2022-11-24T04:36:58.996Z,97254.97
2022-11-24T04:39:45.298Z,97252.75
2022-11-24T04:42:30.823Z,97080.03
2022-11-24T04:45:16.631Z,97258.19
2022-11-24T04:48:02.672Z,97259.69
2022-11-24T04:50:48.717Z,97227.38
2022-11-24T04:53:34.571Z,97255.69
2022-11-24T04:56:19.891Z,97249.09
2022-11-24T04:59:08.429Z,97258.22
2022-11-24T05:01:54.794Z,97199.03
2022-11-24T05:04:40.619Z,97252.00
2022-11-24T05:07:26.271Z,97265.13
2022-11-24T05:10:30.483Z,97265.69
2022-11-24T05:13:16.167Z,97265.50
2022-11-24T05:16:02.302Z,97051.84
2022-11-24T05:18:48.416Z,97274.78
2022-11-24T05:21:35.001Z,97301.22
2022-11-24T05:24:20.762Z,97116.22
2022-11-24T05:27:06.220Z,97281.88
2022-11-24T05:29:52.282Z,97220.13
2022-11-24T05:32:37.728Z,97288.47
2022-11-24T05:35:23.516Z,97157.31
2022-11-24T05:38:09.283Z,97282.28
2022-11-24T05:40:54.579Z,97148.56
2022-11-24T05:43:39.939Z,97177.63
2022-11-24T05:46:25.615Z,97249.03
2022-11-24T05:49:11.616Z,97241.38
2022-11-24T05:51:57.463Z,97299.50
2022-11-24T05:54:42.935Z,97267.16
2022-11-24T17:02:04.304Z,97522.16
2022-11-24T17:04:52.368Z,97701.59
2022-11-24T17:07:38.207Z,97696.34
2022-11-24T17:10:23.528Z,97668.22
2022-11-24T17:13:10.527Z,97657.28
2022-11-24T17:15:56.557Z,97529.47
2022-11-24T17:18:42.397Z,97691.50
2022-11-24T17:21:28.571Z,97700.31
2022-11-24T17:24:17.585Z,97713.56
2022-11-24T17:27:03.234Z,97720.56
2022-11-24T17:29:48.801Z,97716.50
2022-11-24T17:32:34.149Z,97724.25
2022-11-24T17:35:19.581Z,97514.56
2022-11-24T17:38:05.111Z,97717.72
2022-11-24T17:40:50.394Z,97734.13
2022-11-24T17:43:36.255Z,97739.28
2022-11-24T17:46:22.255Z,97568.91
2022-11-24T17:49:13.293Z,97744.19
2022-11-24T17:51:58.915Z,97587.47
2022-11-24T17:54:46.709Z,97731.88
2022-11-24T17:57:32.536Z,97748.13
2022-11-24T18:00:18.755Z,97603.09
2022-11-24T18:03:05.448Z,97728.38
2022-11-24T18:05:51.647Z,97723.13
2022-11-24T18:08:38.915Z,97758.59
2022-11-24T18:11:31.830Z,97757.22
2022-11-24T18:14:17.727Z,97721.09
2022-11-24T18:17:04.303Z,97737.44
2022-11-24T18:19:49.837Z,97772.63
2022-11-24T18:25:52.599Z,97707.03
2022-11-24T18:28:38.316Z,97769.19
2022-11-24T18:31:23.766Z,97610.69
2022-11-24T18:34:09.169Z,97686.47
2022-11-24T18:36:55.705Z,97775.81
2022-11-24T18:39:42.583Z,97630.19
2022-11-24T18:42:31.390Z,97757.97
2022-11-24T18:45:29.198Z,97762.34
2022-11-24T18:48:16.513Z,97803.47
2022-11-24T18:51:02.615Z,97713.34
2022-11-24T18:53:54.406Z,97641.72
2022-11-24T18:56:40.386Z,97802.00
2022-11-24T18:59:33.705Z,97788.00
2022-11-24T19:02:23.319Z,97613.59
2022-11-24T19:05:09.488Z,97657.28
2022-11-24T19:07:55.908Z,97775.00
2022-11-24T19:10:41.808Z,97803.69
2022-11-24T19:13:28.177Z,97799.47
2022-11-24T19:16:14.309Z,97803.38
2022-11-24T19:19:02.640Z,97830.81
2022-11-24T19:21:48.663Z,97677.13
2022-11-24T19:24:34.656Z,97666.94
2022-11-24T19:27:22.494Z,97756.53
2022-11-24T19:30:09.126Z,97753.38
2022-11-24T19:32:56.657Z,97820.84
2022-11-24T19:35:42.544Z,97632.47
2022-11-24T19:38:30.231Z,97655.16
2022-11-24T19:41:16.581Z,97748.66
2022-11-24T19:44:02.942Z,97831.88
2022-11-24T19:46:49.484Z,97823.38
2022-11-24T19:49:36.135Z,97848.69
2022-11-24T19:52:23.194Z,97811.69
2022-11-24T19:55:09.102Z,97843.25
2022-11-24T19:57:55.485Z,97832.94
2022-11-24T20:00:41.297Z,97722.16
2022-11-24T20:03:26.667Z,97627.59
2022-11-24T20:06:14.540Z,97657.00
2022-11-24T20:09:01.100Z,97837.03
2022-11-24T20:11:48.744Z,97863.81
2022-11-24T20:14:35.291Z,97805.78
2022-11-24T20:17:21.026Z,97857.94
2022-11-24T20:20:07.165Z,97653.81
2022-11-24T20:22:52.927Z,97776.53
2022-11-24T20:25:38.842Z,97857.31
2022-11-24T20:28:24.314Z,97859.41
2022-11-24T20:31:13.251Z,97805.28
2022-11-24T20:34:04.378Z,97863.72
2022-11-24T20:36:52.757Z,97828.19
2022-11-24T20:39:40.536Z,97847.00
2022-11-24T20:42:27.746Z,97786.38
2022-11-24T20:45:13.727Z,97827.84
2022-11-24T20:47:59.256Z,97868.25
2022-11-24T20:50:51.152Z,97773.84
2022-11-24T20:53:38.546Z,97791.09
2022-11-24T20:56:27.004Z,97694.91
2022-11-24T20:59:16.619Z,97915.56
2022-11-24T21:02:03.780Z,97880.00
2022-11-24T21:04:49.361Z,97875.19
2022-11-24T21:07:34.860Z,97885.47
2022-11-24T21:10:20.725Z,97889.28
2022-11-24T21:13:06.115Z,97784.03
2022-11-24T21:15:52.164Z,97836.28
2022-11-24T21:18:37.674Z,97892.84
2022-11-24T21:21:24.880Z,97900.84
2022-11-24T21:24:13.131Z,97890.53
2022-11-24T21:26:58.663Z,97899.97
2022-11-24T21:29:43.972Z,97844.22
2022-11-24T21:32:29.495Z,97900.41
2022-11-24T21:35:15.264Z,97776.00
2022-11-24T21:38:00.709Z,97923.56
2022-11-24T21:40:50.183Z,97940.56
2022-11-24T21:43:36.791Z,97837.28
2022-11-24T21:46:22.738Z,97737.56
2022-11-24T21:49:08.436Z,97829.31
2022-11-24T21:51:55.873Z,97926.56
2022-11-24T21:54:41.568Z,97739.38
2022-11-24T21:57:28.391Z,97900.13
2022-11-24T22:00:14.559Z,97882.00
2022-11-24T22:03:00.253Z,97747.75
2022-11-24T22:05:55.995Z,97901.19
2022-11-24T22:08:41.414Z,97945.69
2022-11-24T22:11:26.765Z,97973.44
2022-11-24T22:14:12.516Z,97959.69
2022-11-24T22:16:57.989Z,97826.47
2022-11-24T22:19:43.294Z,97956.28
2022-11-24T22:22:28.829Z,97952.50
2022-11-24T22:25:14.242Z,97968.28
2022-11-24T22:28:01.240Z,97964.28
2022-11-24T22:30:51.161Z,97959.13
2022-11-24T22:33:37.904Z,97802.84
2022-11-24T22:36:25.597Z,97956.28
2022-11-24T22:39:11.929Z,97962.19
2022-11-24T22:41:57.283Z,97873.50
2022-11-24T22:44:43.042Z,97973.75
2022-11-24T22:47:28.712Z,97805.63
2022-11-24T22:50:15.100Z,97851.38
2022-11-24T22:53:01.043Z,97945.69
2022-11-24T22:55:46.779Z,97937.97
2022-11-24T22:58:34.089Z,97963.66
2022-11-24T23:01:20.564Z,97942.00
2022-11-24T23:04:06.417Z,97983.34
2022-11-24T23:06:52.050Z,97901.97
2022-11-24T23:09:37.326Z,97970.19
2022-11-24T23:12:22.773Z,97896.94
2022-11-24T23:15:09.300Z,97948.50
2022-11-24T23:17:55.106Z,97963.84
2022-11-24T23:20:40.928Z,97970.88
2022-11-24T23:23:28.240Z,97933.06
2022-11-24T23:26:17.916Z,97968.41
2022-11-24T23:29:04.756Z,97944.28
2022-11-24T23:31:50.865Z,97779.38
2022-11-24T23:34:36.500Z,97965.59
2022-11-24T23:37:34.326Z,97932.19
2022-11-24T23:40:28.476Z,97984.53
2022-11-24T23:43:14.181Z,97801.03
2022-11-24T23:46:09.091Z,97845.47
2022-11-24T23:48:55.388Z,97827.38
2022-11-24T23:51:42.162Z,97992.69
2022-11-24T23:54:27.766Z,97997.31
2022-11-24T23:57:13.179Z,97983.56
2022-11-24T23:59:58.529Z,98002.94
